Time;durP1;ratioP1;P1;durP2;ratioP2;P2;SDS_P1;SDS_P2;PMS_P1;PMS_P2;Temp;Humidity;BMP_temperature;BMP_pressure;BME280_temperature;BME280_humidity;BME280_pressure;Samples;Min_cycle;Max_cycle;Signal;HPM_P1;HPM_P2
2022/08/18 00:00:32;;;;;;;4.53;4.13;;;25.50;61.60;;;-142.21;78.10;112049.66;5012682;28;20546;-73
2022/08/18 00:03:05;;;;;;;6.53;4.00;;;25.40;61.70;;;-142.21;78.43;112049.66;5012957;28;20238;-73
2022/08/18 00:05:32;;;;;;;5.07;4.00;;;25.30;62.30;;;-142.21;78.98;112049.66;5048880;28;20641;-73
2022/08/18 00:08:00;;;;;;;4.53;4.13;;;25.20;62.20;;;-142.21;78.74;112049.66;5052378;28;20209;-73
2022/08/18 00:10:28;;;;;;;4.37;3.97;;;25.00;62.80;;;-142.21;80.28;112049.66;5051856;28;20206;-73
2022/08/18 00:12:55;;;;;;;4.50;4.10;;;24.90;63.50;;;-142.21;79.36;112049.66;5052080;28;20609;-73
2022/08/18 00:15:24;;;;;;;4.07;3.63;;;24.90;63.40;;;-142.21;78.93;112049.66;5050638;28;20206;-73
2022/08/18 00:17:52;;;;;;;4.40;4.00;;;24.80;63.30;;;-142.21;77.06;112049.66;5052018;28;20263;-74
2022/08/18 00:20:24;;;;;;;5.47;4.00;;;24.70;62.70;;;-142.21;77.62;112049.66;5051719;28;20293;-72
2022/08/18 00:22:55;;;;;;;3.87;3.57;;;24.60;63.00;;;-142.21;76.30;112049.66;5052277;28;20221;-73
2022/08/18 00:25:23;;;;;;;3.77;3.47;;;24.60;62.50;;;-142.21;74.40;112049.66;5051556;28;20655;-73
2022/08/18 00:27:50;;;;;;;3.90;3.43;;;24.60;61.90;;;-142.21;74.04;112049.66;5052382;28;20264;-73
2022/08/18 00:30:21;;;;;;;3.87;3.57;;;24.60;61.60;;;-142.21;73.77;112049.66;5051769;28;20265;-73
2022/08/18 00:32:54;;;;;;;3.60;3.30;;;24.60;61.60;;;-142.21;73.66;112049.66;5051997;28;20207;-73
2022/08/18 00:35:26;;;;;;;3.70;3.40;;;24.60;61.60;;;-142.21;73.22;112049.66;5051526;28;20190;-73
2022/08/18 00:37:55;;;;;;;4.97;3.37;;;24.70;61.50;;;-142.21;73.19;112049.66;5051783;28;20203;-73
2022/08/18 00:40:28;;;;;;;3.30;3.00;;;24.70;61.10;;;-142.21;72.00;112049.66;5051315;28;20645;-73
2022/08/18 00:43:01;;;;;;;4.23;3.47;;;24.70;60.60;;;-142.21;72.27;112049.66;5052273;28;20199;-73
2022/08/18 00:45:34;;;;;;;3.57;3.23;;;24.70;60.70;;;-142.21;72.51;112049.66;5053202;28;20597;-73
2022/08/18 00:48:06;;;;;;;3.90;3.40;;;24.70;60.80;;;-142.21;73.21;112049.66;5055434;28;20194;-73
2022/08/18 00:50:40;;;;;;;3.80;3.47;;;24.70;61.10;;;-142.21;72.79;112049.66;5055592;28;20246;-74
2022/08/18 00:53:17;;;;;;;3.97;3.60;;;24.70;60.80;;;-142.21;73.41;112049.66;5055939;28;20299;-74
2022/08/18 00:55:47;;;;;;;4.30;3.60;;;24.60;61.20;;;-142.21;74.38;112049.66;5056005;28;20212;-73
2022/08/18 00:58:22;;;;;;;5.10;3.90;;;24.70;61.60;;;-142.21;75.12;112049.66;5054733;28;20259;-73
2022/08/18 01:00:51;;;;;;;4.50;3.87;;;24.70;61.90;;;-142.21;76.36;112049.66;5055434;28;20217;-73
2022/08/18 01:03:23;;;;;;;3.87;3.47;;;24.50;62.40;;;-142.21;77.25;112049.66;5054647;28;20238;-73
2022/08/18 01:05:59;;;;;;;4.20;3.80;;;24.50;63.30;;;-142.21;77.96;112049.66;5055172;28;20223;-73
2022/08/18 01:08:27;;;;;;;4.00;3.60;;;24.40;63.60;;;-142.21;78.32;112049.66;5054561;28;20231;-73
2022/08/18 01:10:57;;;;;;;4.40;3.80;;;24.40;63.50;;;-142.21;79.63;112049.66;5055052;28;20200;-73
2022/08/18 01:13:29;;;;;;;4.30;3.90;;;24.50;63.80;;;-142.21;80.29;112049.66;5054670;28;20217;-78
2022/08/18 01:15:57;;;;;;;4.37;3.97;;;24.50;63.90;;;-142.21;80.09;112049.66;5054564;28;20196;-73
2022/08/18 01:24:20;;;;;;;4.10;3.80;;;24.30;66.20;;;-142.21;83.64;112049.66;4993019;28;20226;-72
2022/08/18 01:26:49;;;;;;;4.23;3.70;;;24.30;66.00;;;-142.21;83.31;112049.66;5019077;28;20208;-73
2022/08/18 01:29:19;;;;;;;5.63;4.00;;;24.30;65.80;;;-142.21;83.49;112049.66;5049422;28;20610;-73
2022/08/18 01:31:53;;;;;;;4.13;3.73;;;24.30;65.80;;;-142.21;83.88;112049.66;5055278;28;20549;-72
2022/08/18 01:34:23;;;;;;;4.00;3.70;;;24.30;65.90;;;-142.21;83.46;112049.66;5034105;28;20270;-73
2022/08/18 01:36:52;;;;;;;3.50;3.20;;;24.30;65.40;;;-142.21;83.92;112049.66;5017651;28;20212;-73
2022/08/18 01:39:23;;;;;;;4.67;4.27;;;24.40;65.50;;;-142.21;84.32;112049.66;5034485;28;20605;-73
2022/08/18 01:41:50;;;;;;;4.07;3.67;;;24.30;65.50;;;-142.21;84.54;112049.66;5034748;28;20649;-73
2022/08/18 01:44:17;;;;;;;4.20;3.73;;;24.20;65.30;;;-142.21;85.38;112049.66;5037689;28;20238;-73
2022/08/18 01:46:44;;;;;;;3.90;3.60;;;24.20;65.90;;;-142.21;84.99;112049.66;5054478;28;20295;-73
2022/08/18 01:49:13;;;;;;;4.47;4.07;;;24.10;66.60;;;-142.21;86.83;112049.66;5053765;28;20259;-74
2022/08/18 01:51:41;;;;;;;4.83;4.37;;;24.00;67.50;;;-142.21;89.20;112049.66;5054646;28;20255;-74
2022/08/18 01:54:17;;;;;;;4.90;4.40;;;23.90;69.00;;;-142.21;90.90;112049.66;5054358;28;20233;-73
2022/08/18 01:56:48;;;;;;;5.10;4.60;;;23.70;70.20;;;-142.21;91.44;112049.66;5054129;28;20202;-73
2022/08/18 01:59:16;;;;;;;4.93;4.33;;;23.70;70.50;;;-142.21;91.61;112049.66;5053718;28;20834;-73
2022/08/18 02:01:47;;;;;;;4.90;4.30;;;23.70;70.70;;;-142.21;90.60;112049.66;5054523;28;20248;-73
2022/08/18 02:04:16;;;;;;;4.63;4.27;;;23.70;69.70;;;-142.21;90.52;112049.66;5051428;28;20273;-73
2022/08/18 02:06:44;;;;;;;4.87;4.37;;;23.70;69.60;;;-142.21;90.21;112049.66;5054299;28;20187;-73
2022/08/18 02:09:12;;;;;;;5.87;4.40;;;23.80;69.40;;;-142.21;90.52;112049.66;5053454;28;20205;-72
2022/08/18 02:11:41;;;;;;;4.50;4.10;;;23.80;69.40;;;-142.21;90.33;112049.66;5054136;28;20209;-72
2022/08/18 02:14:10;;;;;;;5.00;4.50;;;24.00;69.20;;;-142.21;90.21;112049.66;5054054;28;20327;-73
2022/08/18 02:16:40;;;;;;;4.70;4.30;;;24.00;69.20;;;-142.21;90.11;112049.66;5052709;28;20304;-73
2022/08/18 02:19:07;;;;;;;5.57;4.43;;;24.00;68.90;;;-142.21;90.29;112049.66;5054554;28;20209;-71
2022/08/18 02:21:35;;;;;;;5.43;4.93;;;24.10;69.10;;;-142.21;91.00;112049.66;5053113;28;20664;-71
2022/08/18 02:24:02;;;;;;;4.70;4.30;;;24.00;69.10;;;-142.21;90.75;112049.66;5053964;28;20246;-73
2022/08/18 02:26:30;;;;;;;5.07;4.63;;;24.10;69.70;;;-142.21;90.81;112049.66;5053721;28;20301;-73
2022/08/18 02:28:57;;;;;;;5.37;4.47;;;24.10;69.70;;;-142.21;90.39;112049.66;5053549;28;20290;-73
2022/08/18 02:31:26;;;;;;;4.80;4.30;;;24.10;69.60;;;-142.21;90.51;112049.66;5053282;28;20251;-73
2022/08/18 02:33:53;;;;;;;5.67;4.53;;;24.10;69.40;;;-142.21;90.73;112049.66;5053392;28;20695;-73
2022/08/18 02:36:21;;;;;;;5.17;4.67;;;24.10;69.50;;;-142.21;91.20;112049.66;5052955;28;20296;-73
2022/08/18 02:38:48;;;;;;;5.20;4.70;;;24.10;69.70;;;-142.21;91.22;112049.66;5054627;28;20295;-73
2022/08/18 02:41:15;;;;;;;5.30;4.53;;;24.10;69.90;;;-142.21;91.45;112049.66;5052842;28;20305;-74
2022/08/18 02:43:43;;;;;;;5.93;4.77;;;24.10;70.20;;;-142.21;91.47;112049.66;5053706;28;20287;-73
2022/08/18 02:46:11;;;;;;;5.10;4.70;;;24.00;70.10;;;-142.21;91.97;112049.66;5053299;28;20300;-74
2022/08/18 02:48:40;;;;;;;5.00;4.30;;;24.00;70.50;;;-142.21;92.64;112049.66;5053035;28;20202;-74
2022/08/18 02:51:11;;;;;;;5.03;4.40;;;23.90;70.80;;;-142.21;93.43;112049.66;5053461;28;20230;-74
2022/08/18 02:53:40;;;;;;;5.97;4.70;;;23.80;71.20;;;-142.21;94.84;112049.66;5052619;28;20649;-74
2022/08/18 02:59:19;;;;;;;5.30;4.80;;;23.70;72.10;;;-142.21;94.76;112049.66;5089977;28;20867;-74
2022/08/18 03:01:49;;;;;;;5.23;4.60;;;23.80;71.90;;;-142.21;95.07;112049.66;5069912;28;20192;-73
2022/08/18 03:04:24;;;;;;;5.33;4.83;;;23.90;71.80;;;-142.21;93.61;112049.66;5069123;28;20291;-73
2022/08/18 03:06:54;;;;;;;5.40;4.90;;;23.90;71.40;;;-142.21;93.65;112049.66;5069620;28;20517;-73
2022/08/18 03:09:22;;;;;;;5.40;4.90;;;23.90;71.20;;;-142.21;94.44;112049.66;5068727;28;20262;-73
2022/08/18 03:11:51;;;;;;;5.40;4.90;;;23.90;71.40;;;-142.21;95.07;112049.66;5068399;28;20221;-74
2022/08/18 03:14:20;;;;;;;5.20;4.70;;;23.90;71.70;;;-142.21;95.26;112049.66;5069150;28;20207;-73
2022/08/18 03:16:51;;;;;;;6.07;5.47;;;23.80;71.60;;;-142.21;95.52;112049.66;5068966;28;20286;-72
2022/08/18 03:19:19;;;;;;;5.30;4.47;;;23.80;71.90;;;-142.21;95.29;112049.66;5068990;28;20192;-71
2022/08/18 03:21:48;;;;;;;5.10;4.53;;;23.80;72.70;;;-142.21;95.18;112049.66;5069113;28;20257;-72
2022/08/18 03:24:16;;;;;;;5.60;5.07;;;23.90;72.10;;;-142.21;94.94;112049.66;5068946;28;20240;-72
2022/08/18 03:26:46;;;;;;;5.43;4.93;;;23.90;71.70;;;-142.21;95.24;112049.66;5067822;28;20247;-72
2022/08/18 03:29:14;;;;;;;5.27;4.77;;;23.90;72.20;;;-142.21;94.88;112049.66;5068941;28;20201;-73
2022/08/18 03:31:44;;;;;;;5.17;4.73;;;23.90;71.80;;;-142.21;95.32;112049.66;5069210;28;20208;-72
2022/08/18 03:34:12;;;;;;;5.23;4.73;;;23.90;72.10;;;-142.21;94.99;112049.66;5068991;28;20290;-71
2022/08/18 03:36:40;;;;;;;5.40;4.90;;;23.90;71.70;;;-142.21;95.91;112049.66;5068734;28;20259;-73
2022/08/18 03:39:11;;;;;;;6.17;5.40;;;23.90;72.40;;;-142.21;95.33;112049.66;5068770;28;20223;-72
2022/08/18 03:41:43;;;;;;;4.93;4.47;;;23.90;72.20;;;-142.21;95.88;112049.66;5068541;28;20295;-72
2022/08/18 03:44:12;;;;;;;4.83;4.40;;;23.90;72.60;;;-142.21;95.69;112049.66;5068757;28;20209;-72
2022/08/18 03:46:43;;;;;;;4.67;4.17;;;23.90;72.60;;;-142.21;95.12;112049.66;5068410;28;20215;-72
2022/08/18 03:49:11;;;;;;;5.27;4.77;;;24.00;72.50;;;-142.21;94.88;112049.66;5069138;28;20272;-73
2022/08/18 03:51:42;;;;;;;6.10;4.93;;;24.00;72.20;;;-142.21;94.31;112049.66;5068295;28;20207;-73
2022/08/18 03:54:12;;;;;;;6.63;4.50;;;24.00;71.80;;;-142.21;93.51;112049.66;5069006;28;20214;-72
2022/08/18 03:56:40;;;;;;;4.73;4.33;;;23.90;71.20;;;-142.21;94.07;112049.66;5067795;28;20208;-74
2022/08/18 03:59:12;;;;;;;5.80;5.17;;;23.90;71.20;;;-142.21;94.46;112049.66;5068076;28;20695;-73
2022/08/18 04:01:46;;;;;;;4.93;4.53;;;23.80;71.60;;;-142.21;94.31;112049.66;5068294;28;20192;-72
2022/08/18 04:04:17;;;;;;;5.27;4.77;;;23.80;71.40;;;-142.21;94.53;112049.66;5068537;28;20183;-72
2022/08/18 04:06:50;;;;;;;5.17;4.77;;;23.80;71.30;;;-142.21;95.09;112049.66;5068729;28;20188;-73
2022/08/18 04:09:19;;;;;;;5.33;4.83;;;23.80;71.60;;;-142.21;95.02;112049.66;5062086;28;20521;-73
2022/08/18 04:11:47;;;;;;;5.07;4.60;;;23.70;71.70;;;-142.21;95.21;112049.66;5055293;28;20223;-73
2022/08/18 04:14:18;;;;;;;5.67;4.80;;;23.60;71.70;;;-142.21;95.28;112049.66;5054096;28;20256;-73
2022/08/18 04:16:47;;;;;;;6.20;5.60;;;23.60;72.00;;;-142.21;95.29;112049.66;5054017;28;20232;-73
2022/08/18 04:19:17;;;;;;;6.30;5.17;;;23.60;72.00;;;-142.21;95.15;112049.66;5055071;28;20499;-73
2022/08/18 04:21:45;;;;;;;6.40;5.80;;;23.60;72.20;;;-142.21;95.72;112049.66;5054279;28;20221;-74
2022/08/18 04:24:14;;;;;;;6.37;5.30;;;23.70;72.40;;;-142.21;95.50;112049.66;5054851;28;20239;-73
2022/08/18 04:26:47;;;;;;;6.43;5.10;;;23.60;72.10;;;-142.21;95.95;112049.66;5054155;28;20229;-74
2022/08/18 04:29:19;;;;;;;5.87;5.27;;;23.60;72.50;;;-142.21;96.14;112049.66;5054504;28;20191;-73
2022/08/18 04:31:50;;;;;;;5.53;5.03;;;23.50;72.60;;;-142.21;95.98;112049.66;5055286;28;20608;-73
2022/08/18 04:34:21;;;;;;;5.60;5.10;;;23.50;72.60;;;-142.21;96.49;112049.66;5066665;28;20206;-72
2022/08/18 04:36:52;;;;;;;5.83;5.30;;;23.60;73.20;;;-142.21;96.39;112049.66;5034982;28;20487;-72
2022/08/18 04:39:21;;;;;;;6.10;5.50;;;23.60;73.00;;;-142.21;96.18;112049.66;5033887;28;20217;-73
2022/08/18 04:41:49;;;;;;;4.97;4.57;;;23.60;72.60;;;-142.21;96.31;112049.66;5034866;28;20220;-73
2022/08/18 04:44:17;;;;;;;5.70;5.20;;;23.60;72.50;;;-142.21;95.99;112049.66;5034917;28;20213;-73
2022/08/18 04:46:50;;;;;;;5.63;5.13;;;23.60;72.70;;;-142.21;95.88;112049.66;5048023;28;20202;-73
2022/08/18 04:49:19;;;;;;;5.83;5.23;;;23.50;72.60;;;-142.21;95.76;112049.66;5054884;28;20197;-72
2022/08/18 04:54:36;;;;;;;5.70;5.20;;;23.60;73.20;;;-142.21;96.98;112049.66;5054180;28;20714;-73
2022/08/18 04:57:09;;;;;;;5.80;5.20;;;23.50;73.70;;;-142.21;97.25;112049.66;5053610;28;20299;-72
2022/08/18 04:59:39;;;;;;;8.17;6.33;;;23.50;74.00;;;-142.21;97.52;112049.66;5053584;28;20242;-73
2022/08/18 05:02:08;;;;;;;5.27;4.77;;;23.50;73.80;;;-142.21;97.73;112049.66;5054519;28;20219;-73
2022/08/18 05:04:37;;;;;;;10.53;6.30;;;23.60;73.80;;;-142.21;97.68;112049.66;5053432;28;20359;-72
2022/08/18 05:07:06;;;;;;;6.10;5.23;;;23.50;73.50;;;-142.21;96.94;112049.66;5054535;28;20558;-71
2022/08/18 05:09:35;;;;;;;6.70;4.87;;;23.60;73.20;;;-142.21;96.73;112049.66;5053370;28;20204;-73
2022/08/18 05:12:04;;;;;;;5.23;4.73;;;23.60;73.30;;;-142.21;95.81;112049.66;5053997;28;20202;-73
2022/08/18 05:14:31;;;;;;;5.97;4.57;;;23.60;72.70;;;-142.21;95.57;112049.66;5053009;28;20238;-73
2022/08/18 05:16:59;;;;;;;6.07;4.63;;;23.60;72.60;;;-142.21;95.38;112049.66;5054026;28;20298;-71
2022/08/18 05:19:29;;;;;;;5.20;4.73;;;23.60;72.40;;;-142.21;94.56;112049.66;5053277;28;20260;-77
2022/08/18 05:22:02;;;;;;;5.60;5.10;;;23.70;73.20;;;-142.21;94.66;112049.66;5052709;28;20202;-77
2022/08/18 05:24:31;;;;;;;5.83;4.70;;;23.70;72.20;;;-142.21;94.08;112049.66;5053337;28;20597;-75
2022/08/18 05:26:59;;;;;;;6.00;5.17;;;23.70;71.90;;;-142.21;94.56;112049.66;5053518;28;20234;-76
2022/08/18 05:29:35;;;;;;;5.53;5.00;;;23.70;71.90;;;-142.21;94.05;112049.66;5053170;28;20220;-75
2022/08/18 05:32:06;;;;;;;5.47;4.80;;;23.70;71.90;;;-142.21;93.98;112049.66;5053128;28;20202;-77
2022/08/18 05:34:36;;;;;;;5.13;4.63;;;23.80;71.60;;;-142.21;93.92;112049.66;5053459;28;20190;-74
2022/08/18 05:37:26;;;;;;;4.83;4.43;;;23.80;71.60;;;-142.21;93.74;112049.66;5053939;28;20205;-75
2022/08/18 05:40:01;;;;;;;5.33;4.80;;;23.80;71.70;;;-142.21;93.59;112049.66;5052971;28;20243;-74
2022/08/18 05:42:35;;;;;;;6.03;5.00;;;23.70;71.40;;;-142.21;93.51;112049.66;5056058;28;20203;-74
2022/08/18 05:45:10;;;;;;;5.10;4.60;;;23.70;71.40;;;-142.21;93.01;112049.66;5057103;28;20208;-75
2022/08/18 05:47:38;;;;;;;5.53;4.90;;;23.70;71.20;;;-142.21;92.74;112049.66;5046389;28;20196;-76
2022/08/18 05:50:11;;;;;;;4.63;4.23;;;23.70;71.20;;;-142.21;93.35;112049.66;5053402;28;20527;-76
2022/08/18 05:52:48;;;;;;;5.20;4.70;;;23.60;71.70;;;-142.21;93.71;112049.66;5052783;28;20214;-75
2022/08/18 05:58:19;;;;;;;5.67;5.17;;;23.40;72.20;;;-142.21;93.96;112049.66;4996377;28;20240;-73
2022/08/18 06:00:54;;;;;;;5.70;5.20;;;23.30;72.50;;;-142.21;94.22;112049.66;5046411;28;20287;-73
2022/08/18 06:03:30;;;;;;;5.63;4.63;;;23.30;72.50;;;-142.21;93.55;112049.66;5052064;28;20308;-73
2022/08/18 06:06:07;;;;;;;4.70;4.30;;;23.40;72.50;;;-142.21;94.19;112049.66;5052909;28;20199;-73
2022/08/18 06:08:43;;;;;;;4.77;4.37;;;23.50;72.90;;;-142.21;93.23;112049.66;5051012;28;20272;-73
2022/08/18 06:11:11;;;;;;;5.03;4.53;;;23.60;72.30;;;-142.21;93.57;112049.66;5051850;28;20193;-73
2022/08/18 06:13:42;;;;;;;6.33;4.90;;;23.60;72.20;;;-142.21;94.21;112049.66;5051494;28;20202;-73
2022/08/18 06:16:21;;;;;;;5.43;4.93;;;23.50;72.60;;;-142.21;93.98;112049.66;5043669;28;20224;-74
2022/08/18 06:18:59;;;;;;;5.47;4.93;;;23.40;72.70;;;-142.21;94.14;112049.66;5038089;28;20209;-74
2022/08/18 06:21:49;;;;;;;5.47;4.97;;;23.50;73.00;;;-142.21;93.41;112049.66;5051300;28;20199;-74
2022/08/18 06:24:29;;;;;;;5.13;4.63;;;23.50;72.90;;;-142.21;94.01;112049.66;5046796;28;20233;-74
2022/08/18 06:27:22;;;;;;;4.80;4.40;;;23.40;72.90;;;-142.21;94.59;112049.66;5050723;28;20570;-74
2022/08/18 06:30:05;;;;;;;6.67;5.20;;;23.30;73.40;;;-142.21;94.88;112049.66;5052064;28;20191;-74
2022/08/18 06:33:01;;;;;;;5.83;5.23;;;23.30;74.00;;;-142.21;94.71;112049.66;5051930;28;20615;-74
2022/08/18 06:35:43;;;;;;;5.63;4.67;;;23.30;73.90;;;-142.21;93.96;112049.66;5052401;28;20191;-73
2022/08/18 06:38:41;;;;;;;6.20;5.40;;;23.40;73.50;;;-142.21;93.99;112049.66;5052529;28;20214;-73
2022/08/18 06:41:17;;;;;;;4.97;4.47;;;23.50;73.40;;;-142.21;94.15;112049.66;5052023;28;20251;-74
2022/08/18 06:44:00;;;;;;;5.63;5.03;;;23.50;73.10;;;-142.21;93.72;112049.66;5047519;28;20303;-73
2022/08/18 06:46:41;;;;;;;5.67;5.13;;;23.60;73.00;;;-142.21;94.27;112049.66;5051606;28;20232;-73
2022/08/18 06:49:12;;;;;;;6.80;5.30;;;23.60;73.00;;;-142.21;94.34;112049.66;5019442;28;20531;-73
2022/08/18 06:51:40;;;;;;;5.57;4.83;;;23.70;73.20;;;-142.21;94.71;112049.66;5051878;28;20243;-73
2022/08/18 06:54:28;;;;;;;6.73;5.10;;;23.60;73.30;;;-142.21;94.66;112049.66;5051921;28;20212;-73
2022/08/18 06:56:58;;;;;;;6.10;5.47;;;23.60;73.70;;;-142.21;94.79;112049.66;5051677;28;20275;-73
2022/08/18 06:59:29;;;;;;;5.63;5.07;;;23.70;73.50;;;-142.21;94.99;112049.66;5052222;28;20262;-73
2022/08/18 07:02:06;;;;;;;5.73;5.10;;;23.70;73.60;;;-142.21;95.15;112049.66;5050427;28;20223;-72
2022/08/18 07:04:44;;;;;;;5.50;4.97;;;23.80;73.80;;;-142.21;95.57;112049.66;5045975;28;20197;-73
2022/08/18 07:07:32;;;;;;;6.30;5.20;;;23.80;74.10;;;-142.21;95.93;112049.66;5032210;28;20258;-73
2022/08/18 07:10:02;;;;;;;6.27;5.57;;;23.80;74.10;;;-142.21;97.07;112049.66;5049448;28;20188;-74
2022/08/18 07:12:30;;;;;;;5.57;4.80;;;23.60;74.60;;;-142.21;97.27;112049.66;5046192;28;20197;-73
2022/08/18 07:15:01;;;;;;;5.70;5.20;;;23.50;74.80;;;-142.21;97.34;112049.66;5047753;28;20664;-75
2022/08/18 07:17:32;;;;;;;5.50;4.87;;;23.60;75.00;;;-142.21;97.17;112049.66;5031585;28;20213;-74
2022/08/18 07:20:09;;;;;;;5.57;4.83;;;23.60;75.70;;;-142.21;97.46;112049.66;5032214;28;20211;-74
2022/08/18 07:22:53;;;;;;;5.97;5.03;;;23.70;75.10;;;-142.21;97.45;112049.66;5031629;28;20205;-74
2022/08/18 07:25:28;;;;;;;4.97;4.47;;;23.70;75.20;;;-142.21;96.92;112049.66;5041728;28;20291;-74
2022/08/18 07:28:00;;;;;;;7.60;5.10;;;23.80;74.70;;;-142.21;96.75;112049.66;5045698;28;20218;-74
2022/08/18 07:30:37;;;;;;;5.40;4.90;;;23.80;74.40;;;-142.21;97.02;112049.66;5043609;28;20203;-73
2022/08/18 07:33:21;;;;;;;5.87;5.37;;;23.80;74.70;;;-142.21;96.75;112049.66;5048517;28;20202;-73
2022/08/18 07:35:56;;;;;;;6.73;5.03;;;23.80;74.90;;;-142.21;96.67;112049.66;5051616;28;20196;-73
2022/08/18 07:38:33;;;;;;;5.20;4.77;;;23.90;74.40;;;-142.21;96.79;112049.66;5034299;28;20209;-73
2022/08/18 07:41:13;;;;;;;5.30;4.70;;;23.90;74.70;;;-142.21;97.16;112049.66;5051379;28;20283;-74
2022/08/18 07:44:00;;;;;;;6.63;5.20;;;23.80;75.10;;;-142.21;97.27;112049.66;5050427;28;20551;-74
2022/08/18 07:46:38;;;;;;;5.93;4.77;;;23.80;75.00;;;-142.21;96.93;112049.66;5055050;28;20199;-73
2022/08/18 07:49:06;;;;;;;6.87;5.37;;;23.70;74.90;;;-142.21;97.02;112049.66;5049207;28;20188;-74
2022/08/18 07:51:47;;;;;;;6.03;5.43;;;23.70;75.00;;;-142.21;96.98;112049.66;5044943;28;20581;-75
2022/08/18 07:54:30;;;;;;;6.00;5.40;;;23.80;75.50;;;-142.21;96.94;112049.66;5053029;28;20198;-74
2022/08/18 07:57:09;;;;;;;5.40;4.90;;;23.70;75.60;;;-142.21;96.90;112049.66;5045623;28;20205;-75
2022/08/18 07:59:47;;;;;;;5.67;5.03;;;23.60;75.60;;;-142.21;96.80;112049.66;5046784;28;20213;-74
2022/08/18 08:02:29;;;;;;;6.30;5.07;;;23.60;75.50;;;-142.21;96.33;112049.66;5049670;28;20686;-75
2022/08/18 08:05:09;;;;;;;6.50;4.67;;;23.60;75.50;;;-142.21;96.00;112049.66;5050406;28;20249;-74
2022/08/18 08:07:51;;;;;;;6.60;5.00;;;23.70;75.30;;;-142.21;95.76;112049.66;5048482;28;20396;-74
2022/08/18 08:10:40;;;;;;;5.40;4.90;;;23.80;75.10;;;-142.21;95.64;112049.66;5052943;28;20273;-74
2022/08/18 08:13:23;;;;;;;5.60;5.07;;;23.80;74.90;;;-142.21;95.97;112049.66;5050936;28;20198;-74
2022/08/18 08:16:03;;;;;;;5.10;4.70;;;23.80;74.80;;;-142.21;95.82;112049.66;5045462;28;20299;-74
2022/08/18 08:18:50;;;;;;;5.63;5.13;;;23.80;74.70;;;-142.21;95.21;112049.66;5046251;28;20198;-73
2022/08/18 08:21:24;;;;;;;7.70;4.97;;;23.80;74.40;;;-142.21;94.94;112049.66;5049757;28;20199;-74
2022/08/18 08:24:07;;;;;;;5.30;4.80;;;23.80;74.10;;;-142.21;94.64;112049.66;5052807;28;20306;-74
2022/08/18 08:26:54;;;;;;;6.53;4.83;;;23.80;73.80;;;-142.21;94.42;112049.66;5042065;28;20223;-74
2022/08/18 08:29:38;;;;;;;5.07;4.67;;;23.80;73.80;;;-142.21;94.40;112049.66;5046266;28;20195;-74
2022/08/18 08:32:12;;;;;;;5.57;5.07;;;23.80;73.80;;;-142.21;95.11;112049.66;5046784;28;20665;-74
2022/08/18 08:34:49;;;;;;;5.67;5.17;;;23.70;74.10;;;-142.21;95.44;112049.66;5052045;28;20219;-73
2022/08/18 08:37:27;;;;;;;8.97;5.00;;;23.70;74.40;;;-142.21;95.69;112049.66;5041359;28;20220;-73
2022/08/18 08:40:00;;;;;;;5.60;5.00;;;23.80;74.60;;;-142.21;97.14;112049.66;5042517;28;20213;-73
2022/08/18 08:42:44;;;;;;;5.43;4.93;;;23.80;75.00;;;-142.21;97.87;112049.66;5049073;28;20214;-74
2022/08/18 08:45:20;;;;;;;5.40;4.50;;;23.90;75.50;;;-142.21;98.06;112049.66;5049200;28;20230;-73
2022/08/18 08:48:02;;;;;;;5.30;4.80;;;23.90;74.90;;;-142.21;97.92;112049.66;5049461;28;20232;-74
2022/08/18 08:50:35;;;;;;;5.00;4.60;;;23.90;74.90;;;-142.21;97.52;112049.66;5052962;28;20751;-74
2022/08/18 08:53:08;;;;;;;7.13;4.80;;;23.90;75.10;;;-142.21;98.77;112049.66;5054070;28;20193;-73
2022/08/18 08:55:45;;;;;;;6.80;5.53;;;23.90;76.00;;;-142.21;99.41;112049.66;5053350;28;20196;-73
2022/08/18 08:58:22;;;;;;;5.60;5.10;;;23.80;76.30;;;-142.21;100.00;112049.66;5052710;28;20286;-73
2022/08/18 09:00:53;;;;;;;6.53;5.50;;;23.60;77.00;;;-142.21;100.00;112049.66;5052095;28;20262;-74
2022/08/18 09:03:43;;;;;;;6.07;5.37;;;23.60;77.70;;;-142.21;100.00;112049.66;5052390;28;20200;-74
2022/08/18 09:06:30;;;;;;;5.47;4.83;;;23.80;77.90;;;-142.21;100.00;112049.66;5053963;28;20201;-74
2022/08/18 09:09:47;;;;;;;5.83;5.33;;;23.90;77.70;;;-142.21;100.00;112049.66;5051314;28;20229;-74
2022/08/18 09:13:00;;;;;;;6.03;5.43;;;24.00;77.40;;;-142.21;100.00;112049.66;5039373;28;20215;-74
2022/08/18 09:16:00;;;;;;;6.10;5.50;;;24.20;77.30;;;-142.21;100.00;112049.66;5052755;28;20299;-74
2022/08/18 09:18:56;;;;;;;7.63;6.00;;;24.30;77.10;;;-142.21;100.00;112049.66;5054222;28;20189;-74
2022/08/18 09:21:40;;;;;;;5.97;5.47;;;24.40;76.50;;;-142.21;100.00;112049.66;5038732;28;20201;-74
2022/08/18 09:24:20;;;;;;;5.70;5.20;;;24.60;77.40;;;-142.21;100.00;112049.66;5054009;28;20198;-73
2022/08/18 09:26:53;;;;;;;5.70;5.20;;;24.80;76.90;;;-142.21;100.00;112049.66;5053400;28;20232;-73
2022/08/18 09:29:48;;;;;;;6.73;5.77;;;25.00;76.80;;;-142.21;98.59;112049.66;5052635;28;20194;-72
2022/08/18 09:32:55;;;;;;;6.13;5.53;;;25.20;76.00;;;-142.21;99.64;112049.66;5053097;28;20689;-74
2022/08/18 09:36:06;;;;;;;6.60;5.87;;;25.40;76.30;;;-142.21;98.46;112049.66;5044867;28;20209;-73
2022/08/18 09:41:46;;;;;;;6.13;5.53;;;25.70;74.30;;;-142.21;98.02;112049.66;5048445;28;20205;-74
2022/08/18 09:44:54;;;;;;;7.70;6.90;;;25.70;74.40;;;-142.21;98.06;112049.66;5044754;28;20217;-74
2022/08/18 09:48:16;;;;;;;7.30;6.60;;;25.80;74.50;;;-142.21;98.20;112049.66;5051696;28;20286;-73
2022/08/18 09:51:31;;;;;;;6.80;6.20;;;25.80;74.10;;;-142.21;97.29;112049.66;5037930;28;20682;-73
2022/08/18 09:54:19;;;;;;;8.67;7.83;;;25.90;74.20;;;-142.21;97.64;112049.66;5043674;28;20263;-74
2022/08/18 09:57:23;;;;;;;8.30;7.33;;;26.00;73.70;;;-142.21;96.13;112049.66;5048028;28;20193;-74
2022/08/18 10:00:30;;;;;;;8.20;7.40;;;25.70;72.20;;;-142.21;98.04;112049.66;5039973;28;20217;-74
2022/08/18 10:03:23;;;;;;;9.07;8.17;;;25.50;74.30;;;-142.21;98.17;112049.66;5046367;28;20225;-73
2022/08/18 10:06:19;;;;;;;9.03;8.00;;;25.60;74.30;;;-142.21;97.75;112049.66;5042904;28;20198;-73
2022/08/18 10:09:26;;;;;;;8.90;8.10;;;25.70;74.00;;;-142.21;96.79;112049.66;5039089;28;20217;-74
2022/08/18 10:12:32;;;;;;;9.73;8.73;;;25.80;73.50;;;-142.21;96.58;112049.66;5037809;28;20271;-75
2022/08/18 10:15:32;;;;;;;9.00;8.10;;;25.80;72.80;;;-142.21;96.46;112049.66;5046824;28;20244;-73
2022/08/18 10:18:26;;;;;;;9.50;8.50;;;25.80;72.80;;;-142.21;96.18;112049.66;5051721;28;20293;-73
2022/08/18 10:21:08;;;;;;;9.93;9.03;;;25.60;72.50;;;-142.21;97.20;112049.66;5051728;28;20605;-74
2022/08/18 10:23:51;;;;;;;9.80;8.80;;;25.50;73.10;;;-142.21;97.43;112049.66;5049232;28;20198;-74
2022/08/18 10:27:12;;;;;;;10.40;9.47;;;25.40;73.50;;;-142.21;97.52;112049.66;5044256;28;20289;-73
2022/08/18 10:29:55;;;;;;;10.03;9.03;;;25.30;73.70;;;-142.21;98.32;112049.66;5037168;28;20186;-74
2022/08/18 10:32:47;;;;;;;9.13;8.23;;;25.40;74.10;;;-142.21;98.07;112049.66;5050987;28;20252;-73
2022/08/18 10:36:00;;;;;;;9.23;8.43;;;25.60;74.50;;;-142.21;97.17;112049.66;5052739;28;20243;-73
2022/08/18 10:38:52;;;;;;;9.30;8.50;;;25.80;73.50;;;-142.21;96.46;112049.66;5052876;28;20706;-73
2022/08/18 10:41:31;;;;;;;8.33;7.53;;;26.00;72.70;;;-142.21;95.51;112049.66;5049108;28;20236;-73
2022/08/18 10:44:02;;;;;;;8.87;8.07;;;26.20;72.40;;;-142.21;95.02;112049.66;5051701;28;20943;-74
2022/08/18 10:46:35;;;;;;;8.37;7.57;;;26.50;71.70;;;-142.21;95.15;112049.66;5044914;28;20758;-72
2022/08/18 10:49:20;;;;;;;9.00;8.13;;;26.80;71.70;;;-142.21;94.17;112049.66;5050894;28;20258;-74
2022/08/18 10:52:37;;;;;;;8.90;8.10;;;27.00;71.30;;;-142.21;92.15;112049.66;5051438;28;20221;-73
2022/08/18 10:55:39;;;;;;;9.07;8.17;;;27.30;70.00;;;-142.21;89.78;112049.66;5033618;28;20205;-73